Time;durP1;ratioP1;P1;durP2;ratioP2;P2;SDS_P1;SDS_P2;PMS_P1;PMS_P2;Temp;Humidity;BMP_temperature;BMP_pressure;BME280_temperature;BME280_humidity;BME280_pressure;Samples;Min_cycle;Max_cycle;Signal;HPM_P1;HPM_P2
2022/07/25 00:00:27;;;;;;;12.10;10.93;;;21.20;99.90;;;;;;5070000;28;20471;-46
2022/07/25 00:02:54;;;;;;;11.37;10.27;;;21.10;99.90;;;;;;5070085;28;20451;-49
2022/07/25 00:05:21;;;;;;;12.40;10.33;;;21.00;99.90;;;;;;5070105;28;20472;-45
2022/07/25 00:07:48;;;;;;;10.00;9.00;;;21.00;99.90;;;;;;5070119;28;20501;-46
2022/07/25 00:10:17;;;;;;;11.77;10.67;;;20.90;99.90;;;;;;5069719;28;20478;-48
2022/07/25 00:12:44;;;;;;;11.80;9.80;;;20.90;99.90;;;;;;5070059;28;20522;-47
2022/07/25 00:15:12;;;;;;;11.57;10.50;;;21.00;99.90;;;;;;5069936;28;20460;-48
2022/07/25 00:17:39;;;;;;;11.70;10.50;;;21.00;99.90;;;;;;5069920;28;20510;-49
2022/07/25 00:20:08;;;;;;;10.47;9.40;;;21.00;99.90;;;;;;5069323;28;20476;-48
2022/07/25 00:22:35;;;;;;;11.53;9.93;;;20.90;99.90;;;;;;5069792;28;20972;-50
2022/07/25 00:25:03;;;;;;;10.57;9.63;;;21.00;99.90;;;;;;5069791;28;20518;-47
2022/07/25 00:27:31;;;;;;;10.83;9.83;;;20.80;99.90;;;;;;5069919;28;20451;-47
2022/07/25 00:29:58;;;;;;;11.97;10.33;;;20.80;99.90;;;;;;5069636;28;20455;-46
2022/07/25 00:32:25;;;;;;;10.23;9.23;;;20.70;99.90;;;;;;5069732;28;20506;-47
2022/07/25 00:34:52;;;;;;;10.03;8.83;;;20.60;99.90;;;;;;5070074;28;20479;-46
2022/07/25 00:37:19;;;;;;;10.40;9.40;;;20.50;99.90;;;;;;5069654;28;20440;-46
2022/07/25 00:39:46;;;;;;;10.33;9.33;;;20.60;99.90;;;;;;5068921;28;20476;-48
2022/07/25 00:42:13;;;;;;;11.13;10.03;;;20.60;99.90;;;;;;5069823;28;20918;-46
2022/07/25 00:44:42;;;;;;;9.83;8.80;;;20.70;99.90;;;;;;5069694;28;20464;-46
2022/07/25 00:47:09;;;;;;;9.47;8.57;;;20.70;99.90;;;;;;5069803;28;20583;-48
2022/07/25 00:49:36;;;;;;;10.00;9.00;;;20.60;99.90;;;;;;5069185;28;20436;-48
2022/07/25 00:52:04;;;;;;;11.87;10.67;;;20.60;99.90;;;;;;5069666;28;20449;-46
2022/07/25 00:54:31;;;;;;;11.33;10.10;;;20.50;99.90;;;;;;5069467;28;20855;-45
2022/07/25 00:56:58;;;;;;;13.30;10.50;;;20.60;99.90;;;;;;5069550;28;20453;-48
2022/07/25 00:59:25;;;;;;;11.07;9.97;;;20.60;99.90;;;;;;5072548;28;20972;-45
2022/07/25 01:01:53;;;;;;;10.53;9.53;;;20.50;99.90;;;;;;5073556;28;20501;-49
2022/07/25 01:04:20;;;;;;;11.10;9.50;;;20.40;99.90;;;;;;5073428;28;20484;-47
2022/07/25 01:06:47;;;;;;;11.10;10.00;;;20.40;99.90;;;;;;5073318;28;20428;-45
2022/07/25 01:09:15;;;;;;;10.27;9.27;;;20.50;99.90;;;;;;5073219;28;20486;-47
2022/07/25 01:11:43;;;;;;;9.90;9.10;;;20.40;99.90;;;;;;5073251;28;20501;-49
2022/07/25 01:14:10;;;;;;;11.43;10.40;;;20.30;99.90;;;;;;5073088;28;20475;-46
2022/07/25 01:16:37;;;;;;;11.67;10.57;;;20.20;99.90;;;;;;5073235;28;20669;-49
2022/07/25 01:19:05;;;;;;;12.60;10.40;;;20.20;99.90;;;;;;5072820;28;20529;-46
2022/07/25 01:21:37;;;;;;;11.33;10.10;;;20.30;99.90;;;;;;5072716;28;20424;-47
2022/07/25 01:24:04;;;;;;;10.40;9.33;;;20.20;99.90;;;;;;5073046;28;20488;-46
2022/07/25 01:26:31;;;;;;;11.17;10.17;;;20.20;99.90;;;;;;5073036;28;20472;-49
2022/07/25 01:28:58;;;;;;;11.83;10.60;;;20.20;99.90;;;;;;5072777;28;20498;-46
2022/07/25 01:31:25;;;;;;;10.63;9.57;;;20.20;99.90;;;;;;5072851;28;20791;-48
2022/07/25 01:33:52;;;;;;;12.27;10.97;;;20.20;99.90;;;;;;5072857;28;20522;-46
2022/07/25 01:36:19;;;;;;;11.50;10.30;;;20.20;99.90;;;;;;5072983;28;20773;-47
2022/07/25 01:38:48;;;;;;;11.00;9.90;;;20.20;99.90;;;;;;5072338;28;20980;-44
2022/07/25 01:41:15;;;;;;;11.43;10.33;;;20.20;99.90;;;;;;5072882;28;20456;-46
2022/07/25 01:43:42;;;;;;;10.03;9.03;;;20.20;99.90;;;;;;5072627;28;21004;-45
2022/07/25 01:46:09;;;;;;;11.83;10.60;;;20.30;99.90;;;;;;5072534;28;20432;-46
2022/07/25 01:48:36;;;;;;;9.93;8.93;;;20.40;99.90;;;;;;5072618;28;20440;-45
2022/07/25 01:51:03;;;;;;;10.90;9.80;;;20.40;99.90;;;;;;5072376;28;20501;-48
2022/07/25 01:53:30;;;;;;;9.63;8.83;;;20.40;99.90;;;;;;5072311;28;20534;-46
2022/07/25 01:55:59;;;;;;;11.47;10.37;;;20.40;99.90;;;;;;5072506;28;20456;-48
2022/07/25 01:58:26;;;;;;;13.50;10.40;;;20.30;99.90;;;;;;5072395;28;20432;-46
2022/07/25 02:00:53;;;;;;;11.50;10.30;;;20.20;99.90;;;;;;5072260;28;20995;-47
2022/07/25 02:06:06;;;;;;;11.13;10.03;;;20.10;99.90;;;;;;5071940;28;20792;-50
2022/07/25 02:08:34;;;;;;;10.63;9.53;;;20.10;99.90;;;;;;5072256;28;20447;-46
2022/07/25 02:11:02;;;;;;;10.73;9.67;;;20.10;99.90;;;;;;5071163;28;20793;-46
2022/07/25 02:13:29;;;;;;;11.07;10.00;;;20.10;99.90;;;;;;5072077;28;20468;-46
2022/07/25 02:15:56;;;;;;;10.30;9.30;;;20.10;99.90;;;;;;5072121;28;20498;-49
2022/07/25 02:18:23;;;;;;;10.77;9.67;;;20.00;99.90;;;;;;5072259;28;20445;-45
2022/07/25 02:20:50;;;;;;;11.00;10.00;;;20.10;99.90;;;;;;5071661;28;20483;-48
2022/07/25 02:23:17;;;;;;;11.07;9.97;;;20.20;99.90;;;;;;5071984;28;20510;-45
2022/07/25 02:25:44;;;;;;;22.27;10.87;;;20.10;99.90;;;;;;5072003;28;20448;-46
2022/07/25 02:28:13;;;;;;;11.13;10.13;;;20.00;99.90;;;;;;5072115;28;20444;-46
2022/07/25 02:30:40;;;;;;;10.10;9.10;;;20.00;99.90;;;;;;5071614;28;20470;-47
2022/07/25 02:33:07;;;;;;;11.10;10.00;;;20.00;99.90;;;;;;5072151;28;20457;-45
2022/07/25 02:35:34;;;;;;;11.00;9.73;;;20.00;99.90;;;;;;5071485;28;20859;-48
2022/07/25 02:38:01;;;;;;;12.83;9.70;;;19.90;99.90;;;;;;5071826;28;20460;-49
2022/07/25 02:40:28;;;;;;;12.53;10.80;;;19.90;99.90;;;;;;5070953;28;20472;-49
2022/07/25 02:42:55;;;;;;;11.33;9.90;;;19.80;99.90;;;;;;5072035;28;20449;-45
2022/07/25 02:45:23;;;;;;;10.97;9.70;;;19.80;99.90;;;;;;5072034;28;20445;-50
2022/07/25 02:47:51;;;;;;;10.33;9.07;;;19.80;99.90;;;;;;5071500;28;20472;-48
2022/07/25 02:50:18;;;;;;;10.83;9.83;;;19.60;99.90;;;;;;5071156;28;20914;-45
2022/07/25 02:52:45;;;;;;;11.80;10.60;;;19.60;99.90;;;;;;5071263;28;20436;-45
2022/07/25 02:55:12;;;;;;;11.77;10.70;;;19.60;99.90;;;;;;5071317;28;20866;-47
2022/07/25 02:57:39;;;;;;;13.00;10.70;;;19.50;99.90;;;;;;5071337;28;20449;-47
2022/07/25 03:00:08;;;;;;;11.30;10.20;;;19.60;99.90;;;;;;5070870;28;20476;-47
2022/07/25 03:02:36;;;;;;;11.67;10.50;;;19.60;99.90;;;;;;5071215;28;20527;-46
2022/07/25 03:05:07;;;;;;;13.93;11.90;;;19.70;99.90;;;;;;5071160;28;20472;-48
2022/07/25 03:07:34;;;;;;;11.40;10.30;;;19.70;99.90;;;;;;5071183;28;20545;-46
2022/07/25 03:10:01;;;;;;;11.23;10.13;;;19.70;99.90;;;;;;5071052;28;20445;-46
2022/07/25 03:12:28;;;;;;;11.03;10.00;;;19.70;99.90;;;;;;5071074;28;20533;-48
2022/07/25 03:14:55;;;;;;;11.13;10.10;;;19.70;99.90;;;;;;5070946;28;20468;-45
2022/07/25 03:17:22;;;;;;;10.70;9.57;;;19.60;99.90;;;;;;5070805;28;20428;-49
2022/07/25 03:19:50;;;;;;;12.13;10.97;;;19.70;99.90;;;;;;5070401;28;20881;-46
2022/07/25 03:22:17;;;;;;;11.60;10.50;;;19.50;99.90;;;;;;5069165;28;20875;-46
2022/07/25 03:24:44;;;;;;;11.30;10.27;;;19.50;99.90;;;;;;5070785;28;20460;-47
2022/07/25 03:27:11;;;;;;;12.57;11.30;;;19.50;99.90;;;;;;5071178;28;20484;-46
2022/07/25 03:29:38;;;;;;;12.67;11.47;;;19.50;99.90;;;;;;5070538;28;21180;-45
2022/07/25 03:32:06;;;;;;;10.83;9.93;;;19.40;99.90;;;;;;5070691;28;20945;-46
2022/07/25 03:34:33;;;;;;;10.77;9.67;;;19.40;99.90;;;;;;5119234;22;20989;-49
2022/07/25 03:37:03;;;;;;;11.47;10.43;;;19.50;99.90;;;;;;5050676;28;20434;-48
2022/07/25 03:39:30;;;;;;;13.13;10.83;;;19.50;99.90;;;;;;5049930;28;20465;-48
2022/07/25 03:41:57;;;;;;;11.37;10.20;;;19.50;99.90;;;;;;5050690;28;20445;-48
2022/07/25 03:44:25;;;;;;;11.10;10.17;;;19.50;99.90;;;;;;5050273;28;20457;-49
2022/07/25 03:46:52;;;;;;;12.00;10.40;;;19.50;99.90;;;;;;5050419;28;20939;-50
2022/07/25 03:49:19;;;;;;;11.37;10.27;;;19.50;99.90;;;;;;5050116;28;20495;-48
2022/07/25 03:51:46;;;;;;;12.70;11.50;;;19.50;99.90;;;;;;5050371;28;20445;-50
2022/07/25 03:54:14;;;;;;;12.43;11.33;;;19.40;99.90;;;;;;5050046;28;20457;-50
2022/07/25 03:56:44;;;;;;;11.77;10.57;;;19.50;99.90;;;;;;5050329;28;20473;-48
2022/07/25 03:59:13;;;;;;;11.83;10.07;;;19.50;99.90;;;;;;5049843;28;20456;-51
2022/07/25 04:01:41;;;;;;;11.27;10.17;;;19.50;99.90;;;;;;5050173;28;20818;-48
2022/07/25 04:04:08;;;;;;;11.63;10.60;;;19.60;99.90;;;;;;5050092;28;20465;-48
2022/07/25 04:06:35;;;;;;;12.30;11.20;;;19.60;99.90;;;;;;5050105;28;20781;-49
2022/07/25 04:09:02;;;;;;;13.00;11.10;;;19.60;99.90;;;;;;5049900;28;20854;-48
2022/07/25 04:11:31;;;;;;;12.37;10.10;;;19.50;99.90;;;;;;5049912;28;20487;-49
2022/07/25 04:13:58;;;;;;;11.10;10.00;;;19.40;99.90;;;;;;5049764;28;20469;-46
2022/07/25 04:16:25;;;;;;;12.00;10.80;;;19.40;99.90;;;;;;5050155;28;20632;-48
2022/07/25 04:18:52;;;;;;;12.10;10.90;;;19.40;99.90;;;;;;5049752;28;20942;-49
2022/07/25 04:21:20;;;;;;;11.83;10.63;;;19.40;99.90;;;;;;5049241;28;20476;-48
2022/07/25 04:23:47;;;;;;;12.37;11.17;;;19.50;99.90;;;;;;5049813;28;20497;-50
2022/07/25 04:26:14;;;;;;;12.57;11.43;;;19.50;99.90;;;;;;5049960;28;20498;-48
2022/07/25 04:28:42;;;;;;;12.30;11.10;;;19.50;99.90;;;;;;5049688;28;20507;-48
2022/07/25 04:31:09;;;;;;;12.40;11.30;;;19.60;99.90;;;;;;5049721;28;20473;-49
2022/07/25 04:33:37;;;;;;;11.70;10.50;;;19.60;99.90;;;;;;5049052;28;20540;-48
2022/07/25 04:36:05;;;;;;;11.37;10.17;;;19.60;99.90;;;;;;5049873;28;20548;-48
2022/07/25 04:38:32;;;;;;;12.47;11.37;;;19.60;99.90;;;;;;5049612;28;20937;-49
2022/07/25 04:40:59;;;;;;;11.47;10.37;;;19.70;99.90;;;;;;5049063;28;20469;-48
2022/07/25 04:43:26;;;;;;;12.17;10.87;;;19.70;99.90;;;;;;5049521;28;20441;-49
2022/07/25 04:45:54;;;;;;;11.37;10.23;;;19.80;99.90;;;;;;5049731;28;20462;-48
2022/07/25 04:48:21;;;;;;;12.33;11.13;;;19.80;99.90;;;;;;5049620;28;21036;-51
2022/07/25 04:50:48;;;;;;;13.03;11.70;;;19.70;99.90;;;;;;5049442;28;20930;-48
2022/07/25 04:53:15;;;;;;;12.80;11.50;;;19.50;99.90;;;;;;5049299;28;20433;-48
2022/07/25 04:55:42;;;;;;;11.13;10.10;;;19.50;99.90;;;;;;5049567;28;20503;-49
2022/07/25 04:58:09;;;;;;;13.33;11.13;;;19.50;99.90;;;;;;5049603;28;20495;-50
2022/07/25 05:00:36;;;;;;;12.50;11.40;;;19.50;99.90;;;;;;5049126;28;20492;-52
2022/07/25 05:03:04;;;;;;;12.33;11.17;;;19.50;99.90;;;;;;5049496;28;21003;-50
2022/07/25 05:05:31;;;;;;;12.43;11.23;;;19.60;99.90;;;;;;5049536;28;20478;-49
2022/07/25 05:07:59;;;;;;;12.20;11.10;;;19.70;99.90;;;;;;5049701;28;20892;-52
2022/07/25 05:10:29;;;;;;;12.10;10.53;;;19.70;99.90;;;;;;5049211;28;20438;-50
2022/07/25 05:12:56;;;;;;;12.03;10.87;;;19.60;99.90;;;;;;5049498;28;20477;-49
2022/07/25 05:15:23;;;;;;;13.10;10.90;;;19.70;99.90;;;;;;5049411;28;20526;-50
2022/07/25 05:17:50;;;;;;;13.17;12.07;;;19.50;99.90;;;;;;5049372;28;20445;-50
2022/07/25 05:20:19;;;;;;;12.60;11.33;;;19.50;99.90;;;;;;5049154;28;20544;-51
2022/07/25 05:22:46;;;;;;;12.83;11.63;;;19.50;99.90;;;;;;5049518;28;20530;-48
2022/07/25 05:25:13;;;;;;;11.73;10.73;;;19.60;99.90;;;;;;5049205;28;20501;-50
2022/07/25 05:27:40;;;;;;;11.53;10.43;;;19.50;99.90;;;;;;5049349;28;20580;-49
2022/07/25 05:30:09;;;;;;;12.23;11.03;;;19.60;99.90;;;;;;5049074;28;20441;-49
2022/07/25 05:32:36;;;;;;;14.33;12.87;;;19.50;99.90;;;;;;5049221;28;20530;-48
2022/07/25 05:35:04;;;;;;;13.10;10.43;;;19.50;99.90;;;;;;5048982;28;20497;-50
2022/07/25 05:37:32;;;;;;;14.30;11.93;;;19.40;99.90;;;;;;5049094;28;20449;-49
2022/07/25 05:39:59;;;;;;;12.33;11.13;;;19.50;99.90;;;;;;5048808;28;20928;-51
2022/07/25 05:42:26;;;;;;;12.10;10.93;;;19.60;99.90;;;;;;5049217;28;20445;-48
2022/07/25 05:44:53;;;;;;;14.60;13.20;;;19.70;99.90;;;;;;5049828;28;20527;-48
2022/07/25 05:47:20;;;;;;;14.30;11.77;;;19.70;99.90;;;;;;5052749;28;20449;-48
2022/07/25 05:49:47;;;;;;;13.40;12.00;;;19.70;99.90;;;;;;5052367;28;20445;-50
2022/07/25 05:52:14;;;;;;;12.83;11.63;;;19.70;99.90;;;;;;5052436;28;20446;-48
2022/07/25 05:54:43;;;;;;;13.33;12.03;;;19.80;99.90;;;;;;5052640;28;20560;-50
2022/07/25 05:57:10;;;;;;;13.87;12.57;;;19.80;99.90;;;;;;5051752;28;20825;-49
2022/07/25 05:59:37;;;;;;;12.73;11.60;;;19.70;99.90;;;;;;5051288;28;20597;-48
2022/07/25 06:02:04;;;;;;;12.30;11.07;;;19.70;99.90;;;;;;5052420;28;20472;-53
2022/07/25 06:04:31;;;;;;;14.10;11.90;;;19.70;99.90;;;;;;5052267;28;20465;-48
2022/07/25 06:06:58;;;;;;;12.90;11.70;;;19.70;99.90;;;;;;5051939;28;20430;-48
2022/07/25 06:09:25;;;;;;;12.07;10.87;;;19.70;99.90;;;;;;5052095;28;20500;-46
2022/07/25 06:11:54;;;;;;;12.93;11.73;;;19.80;99.90;;;;;;5052054;28;20434;-48
2022/07/25 06:14:21;;;;;;;12.20;11.00;;;19.80;99.90;;;;;;5052025;28;20469;-52
2022/07/25 06:16:47;;;;;;;11.70;10.67;;;19.90;99.90;;;;;;5052161;28;20507;-48
2022/07/25 06:19:14;;;;;;;11.93;10.83;;;20.40;99.90;;;;;;5051993;28;20429;-49
2022/07/25 06:21:41;;;;;;;13.57;12.27;;;21.00;99.90;;;;;;5051772;28;20481;-48
2022/07/25 06:24:09;;;;;;;12.43;11.23;;;21.70;99.90;;;;;;5051985;28;20758;-48
2022/07/25 06:26:38;;;;;;;12.40;11.10;;;22.20;99.90;;;;;;5051996;28;20536;-51
2022/07/25 06:29:06;;;;;;;11.80;10.77;;;22.30;99.90;;;;;;5051630;28;20545;-49
2022/07/25 06:31:33;;;;;;;12.13;11.03;;;22.40;99.90;;;;;;5051956;28;20449;-48
2022/07/25 06:34:00;;;;;;;12.20;11.07;;;22.50;99.90;;;;;;5051667;28;20477;-50
2022/07/25 06:36:27;;;;;;;11.13;10.00;;;22.60;99.90;;;;;;5051814;28;20449;-48
2022/07/25 06:38:54;;;;;;;14.00;12.17;;;22.60;99.90;;;;;;5051302;28;20495;-51
2022/07/25 06:41:21;;;;;;;13.23;12.03;;;22.60;99.90;;;;;;5051661;28;20523;-48
2022/07/25 06:43:48;;;;;;;13.97;12.67;;;22.70;99.90;;;;;;5051409;28;20454;-49
2022/07/25 06:46:16;;;;;;;14.53;13.07;;;22.80;99.90;;;;;;5051620;28;20449;-48
2022/07/25 06:48:43;;;;;;;13.63;12.33;;;22.90;99.90;;;;;;5051405;28;20495;-48
2022/07/25 06:51:10;;;;;;;13.87;12.13;;;22.90;99.90;;;;;;5051486;28;20495;-49
2022/07/25 06:53:37;;;;;;;12.43;11.33;;;23.00;99.90;;;;;;5051375;28;20441;-49
2022/07/25 06:56:05;;;;;;;12.50;11.30;;;23.00;99.90;;;;;;5051500;28;20441;-48
2022/07/25 06:58:32;;;;;;;12.70;11.50;;;23.00;99.90;;;;;;5051677;28;20441;-49
2022/07/25 07:01:00;;;;;;;13.50;12.20;;;23.00;99.90;;;;;;5050937;28;20530;-52
2022/07/25 07:03:28;;;;;;;13.63;12.40;;;22.90;99.90;;;;;;5051199;28;20544;-49
2022/07/25 07:05:55;;;;;;;12.73;11.43;;;22.90;99.90;;;;;;5051123;28;20484;-48
2022/07/25 07:08:22;;;;;;;12.87;11.80;;;22.80;99.90;;;;;;5050891;28;20453;-50
2022/07/25 07:10:49;;;;;;;13.80;12.33;;;22.80;99.90;;;;;;5050947;28;20471;-48
2022/07/25 07:13:17;;;;;;;13.00;11.90;;;22.90;99.90;;;;;;5050993;28;20499;-51
2022/07/25 07:15:48;;;;;;;13.57;12.20;;;22.90;99.90;;;;;;5050906;28;20850;-52
2022/07/25 07:18:15;;;;;;;14.40;13.10;;;22.90;99.90;;;;;;5050881;28;20524;-48
2022/07/25 07:20:44;;;;;;;13.10;11.70;;;22.90;99.90;;;;;;5050986;28;21013;-48
2022/07/25 07:23:11;;;;;;;13.03;11.87;;;22.90;99.90;;;;;;5050968;28;20503;-49
2022/07/25 07:25:38;;;;;;;12.43;11.30;;;23.00;99.90;;;;;;5050562;28;20889;-49
2022/07/25 07:28:06;;;;;;;12.67;11.50;;;23.00;99.90;;;;;;5050496;28;20880;-50
2022/07/25 07:30:33;;;;;;;12.47;11.27;;;22.90;99.90;;;;;;5050514;28;20465;-50
2022/07/25 07:33:00;;;;;;;11.90;10.80;;;22.90;99.90;;;;;;5050709;28;20769;-49
2022/07/25 07:35:27;;;;;;;12.97;11.77;;;22.90;99.90;;;;;;5050242;28;20880;-49
2022/07/25 07:37:56;;;;;;;13.60;12.40;;;23.00;99.90;;;;;;5050828;28;21156;-50
2022/07/25 07:40:25;;;;;;;13.40;12.20;;;23.20;99.90;;;;;;5050124;28;20430;-48
2022/07/25 07:42:53;;;;;;;12.37;11.17;;;23.40;99.90;;;;;;5050341;28;20438;-51
2022/07/25 07:45:22;;;;;;;11.90;10.87;;;23.70;99.90;;;;;;5050261;28;21008;-50
2022/07/25 07:47:51;;;;;;;12.90;11.80;;;23.90;99.90;;;;;;5050525;28;20984;-51
2022/07/25 07:50:20;;;;;;;13.43;11.20;;;24.10;99.90;;;;;;5050206;28;20446;-50
2022/07/25 07:52:48;;;;;;;12.90;11.90;;;24.20;99.90;;;;;;5050207;28;20575;-48
2022/07/25 07:58:02;;;;;;;12.77;11.67;;;24.30;99.90;;;;;;5050207;28;20425;-52
2022/07/25 08:00:30;;;;;;;13.07;11.97;;;24.40;99.90;;;;;;5050008;28;21008;-50
2022/07/25 08:02:58;;;;;;;11.30;10.40;;;24.50;99.90;;;;;;5050286;28;20456;-48
2022/07/25 08:05:29;;;;;;;12.70;11.60;;;24.60;99.90;;;;;;5050105;28;20515;-48
2022/07/25 08:07:56;;;;;;;13.37;11.97;;;24.80;99.90;;;;;;5049341;28;20852;-50
2022/07/25 08:10:27;;;;;;;11.90;10.80;;;24.90;99.90;;;;;;5049840;28;20445;-49
2022/07/25 08:12:54;;;;;;;13.10;11.90;;;25.10;99.90;;;;;;5050132;28;20454;-53
2022/07/25 08:15:22;;;;;;;12.60;11.40;;;25.20;99.90;;;;;;5049843;28;20527;-50
2022/07/25 08:17:50;;;;;;;13.47;12.27;;;25.30;99.90;;;;;;5050057;28;20495;-49
2022/07/25 08:20:18;;;;;;;12.27;11.27;;;25.50;99.90;;;;;;5049693;28;20942;-51
2022/07/25 08:22:48;;;;;;;12.27;11.10;;;25.60;99.90;;;;;;5050259;28;20465;-49
2022/07/25 08:25:16;;;;;;;13.30;12.20;;;25.80;99.90;;;;;;5049639;28;20460;-49
2022/07/25 08:27:45;;;;;;;12.00;10.90;;;25.70;99.90;;;;;;5049965;28;20511;-48
2022/07/25 08:30:13;;;;;;;13.50;12.10;;;25.90;99.90;;;;;;5049455;28;20781;-49
2022/07/25 08:32:48;;;;;;;13.30;12.10;;;26.00;99.90;;;;;;5049892;28;20476;-51
2022/07/25 08:35:15;;;;;;;15.10;13.63;;;25.80;99.90;;;;;;5049663;28;20563;-48
2022/07/25 08:37:42;;;;;;;13.87;12.57;;;25.70;99.90;;;;;;5049802;28;20938;-49
2022/07/25 08:40:11;;;;;;;14.13;12.90;;;25.90;99.90;;;;;;5049228;28;20444;-49
2022/07/25 08:42:39;;;;;;;14.13;12.80;;;26.00;99.90;;;;;;5049583;28;20977;-49
2022/07/25 08:45:09;;;;;;;13.30;12.20;;;26.10;99.90;;;;;;5049421;28;20445;-49
2022/07/25 08:47:37;;;;;;;14.63;13.27;;;26.00;99.90;;;;;;5049743;28;20471;-51
2022/07/25 08:50:06;;;;;;;14.00;12.80;;;26.20;99.90;;;;;;5049335;28;20433;-48
2022/07/25 08:52:35;;;;;;;13.40;12.20;;;26.30;99.90;;;;;;5049699;28;20515;-50
2022/07/25 08:55:02;;;;;;;13.40;12.20;;;26.40;99.90;;;;;;5049494;28;20504;-48
2022/07/25 08:57:29;;;;;;;13.83;12.57;;;26.20;99.90;;;;;;5049444;28;20461;-49
2022/07/25 08:59:59;;;;;;;14.33;13.03;;;26.30;99.90;;;;;;5049463;28;20538;-51
2022/07/25 09:02:29;;;;;;;14.30;13.03;;;26.50;99.90;;;;;;5049359;28;20461;-49
2022/07/25 09:04:57;;;;;;;13.20;12.00;;;26.50;99.90;;;;;;5049370;28;20511;-48
2022/07/25 09:07:32;;;;;;;13.87;12.63;;;26.50;99.90;;;;;;5049267;28;20864;-49
2022/07/25 09:10:00;;;;;;;14.33;12.93;;;26.60;99.90;;;;;;5049209;28;20464;-52
2022/07/25 09:12:27;;;;;;;13.90;12.60;;;26.50;99.90;;;;;;5049953;28;20437;-49
2022/07/25 09:14:55;;;;;;;14.17;12.97;;;26.50;99.90;;;;;;5049479;28;20465;-49
2022/07/25 09:17:22;;;;;;;12.57;11.57;;;26.50;99.90;;;;;;5049503;28;20449;-50
2022/07/25 09:19:54;;;;;;;14.20;12.60;;;26.50;99.90;;;;;;5051210;28;20817;-48
2022/07/25 09:22:21;;;;;;;13.70;12.50;;;26.70;99.90;;;;;;5052909;28;20905;-49
2022/07/25 09:24:48;;;;;;;14.53;13.27;;;26.80;99.90;;;;;;5052921;28;20453;-48
2022/07/25 09:27:16;;;;;;;14.17;12.97;;;26.90;99.90;;;;;;5053158;28;20453;-49
2022/07/25 09:29:44;;;;;;;14.30;13.00;;;26.90;99.90;;;;;;5052908;28;20494;-49
2022/07/25 09:32:17;;;;;;;13.50;12.33;;;26.90;99.90;;;;;;5052928;28;20912;-49
2022/07/25 09:34:46;;;;;;;15.00;13.70;;;26.90;99.90;;;;;;5054229;28;20485;-48
2022/07/25 09:37:16;;;;;;;14.77;13.47;;;26.90;99.90;;;;;;5052940;28;20448;-54
2022/07/25 09:39:45;;;;;;;13.73;12.43;;;27.00;99.90;;;;;;5052397;28;20510;-50
2022/07/25 09:42:24;;;;;;;14.27;12.97;;;27.20;99.90;;;;;;5052670;28;20469;-48
2022/07/25 09:45:03;;;;;;;13.57;12.37;;;27.20;99.90;;;;;;5053146;28;20457;-49
2022/07/25 09:47:31;;;;;;;13.00;11.97;;;27.30;99.90;;;;;;5052960;28;20475;-49
2022/07/25 09:49:58;;;;;;;15.50;14.00;;;27.40;99.90;;;;;;5052538;28;20477;-49
2022/07/25 09:52:27;;;;;;;14.33;13.03;;;27.30;99.90;;;;;;5052668;28;20942;-49
2022/07/25 09:54:54;;;;;;;14.63;13.40;;;27.30;99.90;;;;;;5052282;28;20857;-48
2022/07/25 09:57:22;;;;;;;14.87;13.37;;;27.20;99.90;;;;;;5052433;28;20524;-50
2022/07/25 09:59:49;;;;;;;14.07;12.90;;;27.30;99.90;;;;;;5052397;28;20430;-51
2022/07/25 10:02:30;;;;;;;13.60;12.40;;;27.40;99.90;;;;;;5052379;28;21088;-52
2022/07/25 10:05:12;;;;;;;13.60;12.40;;;27.40;99.90;;;;;;5052938;28;20514;-52
2022/07/25 10:07:44;;;;;;;12.87;11.77;;;27.50;99.90;;;;;;5052130;28;20438;-52
2022/07/25 10:10:30;;;;;;;13.70;12.43;;;27.70;99.90;;;;;;5052021;28;20456;-52
2022/07/25 10:13:02;;;;;;;14.77;13.37;;;27.80;99.90;;;;;;5052352;28;20437;-49
2022/07/25 10:15:44;;;;;;;15.00;13.70;;;27.90;99.90;;;;;;5052182;28;21043;-49
2022/07/25 10:18:11;;;;;;;14.27;12.87;;;28.00;99.90;;;;;;5052160;28;20453;-50
2022/07/25 10:20:38;;;;;;;14.90;13.60;;;28.20;99.90;;;;;;5051610;28;20435;-51
2022/07/25 10:23:18;;;;;;;14.90;13.53;;;28.20;99.90;;;;;;5051528;28;20477;-49
2022/07/25 10:25:45;;;;;;;13.80;12.60;;;28.10;99.90;;;;;;5051596;28;20489;-50
2022/07/25 10:28:18;;;;;;;14.30;13.00;;;28.10;99.90;;;;;;5051788;28;20440;-49
2022/07/25 10:30:45;;;;;;;14.00;12.80;;;28.10;99.90;;;;;;5051146;28;20502;-50
2022/07/25 10:33:14;;;;;;;15.07;13.70;;;28.20;99.90;;;;;;5051766;28;20441;-49
2022/07/25 10:35:42;;;;;;;13.83;12.60;;;28.20;99.90;;;;;;5051340;28;20493;-51
2022/07/25 10:38:10;;;;;;;14.70;13.33;;;28.20;99.90;;;;;;5051190;28;20853;-48
2022/07/25 10:40:39;;;;;;;14.10;12.83;;;28.30;99.90;;;;;;5051385;28;20493;-51
2022/07/25 10:43:11;;;;;;;15.10;13.50;;;28.30;99.90;;;;;;5051288;28;20497;-50
2022/07/25 10:45:43;;;;;;;13.47;12.27;;;28.30;99.90;;;;;;5048679;28;20480;-49
2022/07/25 10:48:21;;;;;;;13.33;12.23;;;28.40;99.90;;;;;;5051021;28;20438;-51
2022/07/25 10:50:51;;;;;;;13.50;12.30;;;28.50;99.90;;;;;;5051255;28;20442;-49
2022/07/25 10:53:33;;;;;;;13.07;11.87;;;28.50;99.90;;;;;;5051373;28;20536;-49
2022/07/25 10:56:05;;;;;;;13.53;12.23;;;28.60;99.90;;;;;;5050257;28;20521;-50
2022/07/25 10:58:43;;;;;;;14.00;12.80;;;28.70;99.90;;;;;;5051743;28;20918;-53
2022/07/25 11:01:10;;;;;;;13.80;12.57;;;28.90;99.90;;;;;;5051069;28;20452;-50
2022/07/25 11:03:37;;;;;;;14.50;13.30;;;29.10;99.90;;;;;;5051383;28;20437;-50
2022/07/25 11:06:04;;;;;;;14.30;13.10;;;29.00;99.90;;;;;;5051035;28;20531;-46
2022/07/25 11:08:34;;;;;;;14.43;13.23;;;29.10;99.90;;;;;;5051110;28;20445;-52
2022/07/25 11:11:02;;;;;;;14.77;13.33;;;29.20;99.90;;;;;;5050968;28;20525;-51
2022/07/25 11:13:29;;;;;;;14.40;13.00;;;29.20;99.90;;;;;;5051066;28;20441;-50
2022/07/25 11:15:59;;;;;;;14.80;13.60;;;29.20;99.90;;;;;;5051126;28;20938;-51
2022/07/25 11:18:33;;;;;;;14.50;13.30;;;29.30;99.90;;;;;;5050932;28;20807;-49
2022/07/25 11:21:02;;;;;;;14.70;13.30;;;29.30;99.90;;;;;;5050826;28;20553;-50
2022/07/25 11:23:29;;;;;;;13.47;12.10;;;29.50;99.90;;;;;;5050596;28;20561;-50
2022/07/25 11:26:15;;;;;;;13.10;12.10;;;29.50;99.90;;;;;;5050927;28;20487;-49
2022/07/25 11:28:44;;;;;;;13.93;12.70;;;29.60;99.90;;;;;;5050710;28;20942;-51
2022/07/25 11:31:13;;;;;;;13.30;12.20;;;29.70;99.90;;;;;;5050601;28;20841;-51
2022/07/25 11:33:41;;;;;;;15.47;14.10;;;29.70;99.90;;;;;;5050706;28;20469;-50
2022/07/25 11:36:10;;;;;;;15.07;13.87;;;29.70;99.90;;;;;;5050663;28;20504;-52
2022/07/25 11:38:38;;;;;;;14.20;12.90;;;29.70;99.90;;;;;;5050542;28;20430;-49
2022/07/25 11:41:07;;;;;;;13.37;12.23;;;29.80;99.90;;;;;;5050533;28;20449;-50
2022/07/25 11:43:35;;;;;;;13.60;12.50;;;29.80;99.90;;;;;;5049245;28;20588;-49
2022/07/25 11:46:05;;;;;;;12.90;11.70;;;29.80;99.90;;;;;;5050371;28;20453;-49
2022/07/25 11:48:35;;;;;;;13.50;12.27;;;29.90;99.90;;;;;;5050296;28;20454;-51
2022/07/25 11:51:15;;;;;;;16.23;13.87;;;30.00;99.90;;;;;;5050216;28;20440;-51
2022/07/25 11:53:46;;;;;;;13.53;12.20;;;30.00;99.90;;;;;;5050389;28;20465;-50
2022/07/25 11:56:19;;;;;;;16.23;14.87;;;30.10;99.90;;;;;;5050344;28;20446;-50
2022/07/25 11:58:57;;;;;;;14.20;13.00;;;30.20;99.90;;;;;;5049809;28;20441;-48
2022/07/25 12:01:25;;;;;;;13.70;12.60;;;30.20;99.90;;;;;;5050076;28;20449;-51
2022/07/25 12:03:52;;;;;;;13.17;11.97;;;30.20;99.90;;;;;;5049958;28;20535;-53
2022/07/25 12:06:19;;;;;;;12.80;11.70;;;30.20;99.90;;;;;;5050014;28;20453;-49
2022/07/25 12:08:46;;;;;;;12.50;11.40;;;30.20;99.90;;;;;;5049913;28;20532;-47
2022/07/25 12:11:21;;;;;;;12.77;11.50;;;30.30;99.90;;;;;;5050106;28;20452;-49
2022/07/25 12:13:48;;;;;;;13.40;12.20;;;30.40;99.90;;;;;;5050093;28;20516;-49
2022/07/25 12:16:17;;;;;;;13.90;12.60;;;30.40;99.90;;;;;;5050056;28;20504;-51
2022/07/25 12:18:45;;;;;;;13.70;12.40;;;30.40;99.90;;;;;;5049744;28;21028;-51
2022/07/25 12:21:11;;;;;;;13.10;11.93;;;30.50;99.90;;;;;;5049942;28;20449;-51
2022/07/25 12:23:41;;;;;;;12.20;11.10;;;30.60;99.90;;;;;;5049576;28;20484;-51
2022/07/25 12:26:10;;;;;;;11.57;10.53;;;30.70;99.90;;;;;;5050093;28;20495;-52
2022/07/25 12:28:37;;;;;;;10.10;9.27;;;30.80;98.90;;;;;;5049628;28;20977;-50
2022/07/25 12:31:04;;;;;;;10.40;9.50;;;31.00;97.30;;;;;;5049631;28;20450;-51
2022/07/25 12:33:33;;;;;;;12.73;11.63;;;31.00;98.20;;;;;;5049671;28;20438;-49
2022/07/25 12:36:00;;;;;;;11.00;10.10;;;31.10;98.90;;;;;;5049846;28;20445;-50
2022/07/25 12:38:27;;;;;;;11.77;10.50;;;31.10;98.40;;;;;;5049754;28;20503;-50